createdAt,value
2022-09-04T00:00:21.379Z,25.30
2022-09-04T00:03:11.788Z,25.20
2022-09-04T00:06:06.988Z,25.10
2022-09-04T00:09:09.964Z,25.10
2022-09-04T00:11:45.937Z,25.20
2022-09-04T00:14:23.600Z,25.20
2022-09-04T00:17:22.296Z,25.30
2022-09-04T00:20:01.731Z,25.30
2022-09-04T00:22:57.090Z,25.20
2022-09-04T00:25:36.082Z,25.20
2022-09-04T00:28:31.811Z,25.20
2022-09-04T00:31:27.313Z,25.10
2022-09-04T00:34:12.719Z,25.10
2022-09-04T00:36:50.235Z,25.10
2022-09-04T00:39:35.975Z,25.10
2022-09-04T00:42:15.222Z,25.00
2022-09-04T00:45:16.742Z,24.90
2022-09-04T00:48:19.457Z,24.80
2022-09-04T00:51:01.408Z,24.80
2022-09-04T00:53:40.244Z,24.80
2022-09-04T00:56:32.884Z,24.70
2022-09-04T00:59:41.058Z,24.70
2022-09-04T01:02:34.002Z,24.70
2022-09-04T01:05:38.353Z,24.70
2022-09-04T01:08:09.930Z,24.70
2022-09-04T01:11:03.768Z,24.70
2022-09-04T01:13:45.722Z,24.60
2022-09-04T01:16:35.417Z,24.70
2022-09-04T01:19:32.147Z,24.70
2022-09-04T01:22:24.024Z,24.60
2022-09-04T01:25:13.359Z,24.60
2022-09-04T01:28:09.564Z,24.50
2022-09-04T01:31:01.933Z,24.50
2022-09-04T01:34:43.542Z,24.50
2022-09-04T01:37:22.023Z,24.50
2022-09-04T01:40:18.586Z,24.50
2022-09-04T01:43:04.549Z,24.50
2022-09-04T01:45:49.338Z,24.50
2022-09-04T01:48:28.337Z,24.50
2022-09-04T01:51:07.368Z,24.40
2022-09-04T01:53:40.053Z,24.30
2022-09-04T01:56:32.205Z,24.40
2022-09-04T01:59:14.129Z,24.40
2022-09-04T02:02:01.097Z,24.50
2022-09-04T02:04:48.694Z,24.50
2022-09-04T02:07:30.591Z,24.50
2022-09-04T02:10:10.701Z,24.50
2022-09-04T02:13:08.340Z,24.50
2022-09-04T02:15:54.363Z,24.50
2022-09-04T02:18:49.862Z,24.50
2022-09-04T02:21:27.940Z,24.40
2022-09-04T02:24:20.881Z,24.40
2022-09-04T02:27:30.541Z,24.40
2022-09-04T02:30:14.952Z,24.30
2022-09-04T02:32:49.013Z,24.30
2022-09-04T02:35:27.033Z,24.30
2022-09-04T02:38:07.768Z,24.20
2022-09-04T02:40:59.724Z,24.30
2022-09-04T02:43:39.085Z,24.30
2022-09-04T02:46:46.661Z,24.30
2022-09-04T02:49:26.434Z,24.20
2022-09-04T02:52:34.394Z,24.20
2022-09-04T02:55:38.214Z,24.20
2022-09-04T02:58:28.154Z,24.10
2022-09-04T03:01:16.245Z,24.10
2022-09-04T03:03:56.405Z,24.10
2022-09-04T03:06:51.681Z,24.10
2022-09-04T03:09:43.532Z,24.20
2022-09-04T03:12:53.098Z,24.10
2022-09-04T03:15:38.311Z,24.10
2022-09-04T03:18:34.980Z,24.00
2022-09-04T03:21:12.588Z,24.00
2022-09-04T03:24:04.138Z,24.00
2022-09-04T03:26:48.177Z,23.90
2022-09-04T03:29:37.211Z,23.90
2022-09-04T03:32:30.748Z,23.80
2022-09-04T03:35:36.820Z,23.80
2022-09-04T03:38:21.322Z,23.70
2022-09-04T03:41:14.189Z,23.60
2022-09-04T03:44:17.131Z,23.70
2022-09-04T03:47:05.210Z,23.60
2022-09-04T03:50:02.536Z,23.50
2022-09-04T03:52:58.321Z,23.50
2022-09-04T03:55:38.885Z,23.50
2022-09-04T03:58:15.039Z,23.50
2022-09-04T04:00:52.291Z,23.50
2022-09-04T04:03:54.050Z,23.70
2022-09-04T04:06:57.510Z,23.50
2022-09-04T04:09:46.906Z,23.50
2022-09-04T04:12:46.278Z,23.40
2022-09-04T04:15:49.573Z,23.50
2022-09-04T04:18:46.931Z,23.50
2022-09-04T04:21:59.918Z,23.50
2022-09-04T04:24:33.642Z,23.50
2022-09-04T04:27:34.822Z,23.60
2022-09-04T04:30:16.908Z,23.60
2022-09-04T04:33:13.229Z,23.60
2022-09-04T04:35:55.410Z,23.50
2022-09-04T04:38:51.117Z,23.50
2022-09-04T04:41:52.459Z,23.50
2022-09-04T04:44:55.552Z,23.50
2022-09-04T04:47:47.229Z,23.50
2022-09-04T04:50:54.883Z,23.40
2022-09-04T04:53:43.771Z,23.50
2022-09-04T04:56:30.278Z,23.50
2022-09-04T04:59:16.150Z,23.40
2022-09-04T05:02:10.567Z,23.50
2022-09-04T05:05:06.285Z,23.50
2022-09-04T05:08:13.241Z,23.50
2022-09-04T05:10:49.875Z,23.40
2022-09-04T05:13:42.911Z,23.50
2022-09-04T05:16:20.019Z,23.40
2022-09-04T05:18:58.902Z,23.40
2022-09-04T05:21:45.637Z,23.40
2022-09-04T05:24:58.168Z,23.40
2022-09-04T05:27:50.486Z,23.30
2022-09-04T05:30:52.052Z,23.30
2022-09-04T05:33:58.703Z,23.40
2022-09-04T05:36:56.559Z,23.40
2022-09-04T05:39:36.047Z,23.40
2022-09-04T05:42:37.203Z,23.40
2022-09-04T05:45:43.069Z,23.40
2022-09-04T05:48:24.413Z,23.40
2022-09-04T05:51:07.124Z,23.40
2022-09-04T05:53:50.284Z,23.40
2022-09-04T05:56:53.464Z,23.50
2022-09-04T06:00:04.086Z,23.50
2022-09-04T06:03:16.270Z,23.40
2022-09-04T06:06:26.708Z,23.40
2022-09-04T06:09:26.459Z,23.40
2022-09-04T06:12:02.324Z,23.40
2022-09-04T06:14:41.898Z,23.40
2022-09-04T06:17:48.495Z,23.30
2022-09-04T06:20:43.866Z,23.40
2022-09-04T06:23:58.192Z,23.30
2022-09-04T06:26:51.351Z,23.40
2022-09-04T06:29:59.103Z,23.40
2022-09-04T06:33:02.084Z,23.30
2022-09-04T06:35:53.177Z,23.30
2022-09-04T06:38:54.869Z,23.30
2022-09-04T06:41:36.787Z,23.30
2022-09-04T06:44:36.223Z,23.30
2022-09-04T06:47:36.250Z,23.30
2022-09-04T06:50:20.119Z,23.20
2022-09-04T06:52:59.093Z,23.30
2022-09-04T06:55:54.148Z,23.30
2022-09-04T06:58:53.147Z,23.30
2022-09-04T07:01:52.451Z,23.30
2022-09-04T07:04:36.412Z,23.30
2022-09-04T07:07:17.386Z,23.20
2022-09-04T07:10:01.556Z,23.20
2022-09-04T07:12:43.574Z,23.10
2022-09-04T07:15:37.808Z,23.20
2022-09-04T07:18:32.291Z,23.10
2022-09-04T07:21:24.196Z,23.00
2022-09-04T07:24:39.472Z,23.10
2022-09-04T07:27:28.899Z,23.10
2022-09-04T07:30:16.733Z,23.20
2022-09-04T07:33:28.517Z,23.20
2022-09-04T07:36:18.105Z,23.20
2022-09-04T07:39:15.579Z,23.20
2022-09-04T07:41:53.875Z,23.10
2022-09-04T07:44:37.684Z,23.10
2022-09-04T07:47:20.611Z,23.20
2022-09-04T07:50:27.523Z,23.20
2022-09-04T07:53:34.288Z,23.20
2022-09-04T07:56:37.400Z,23.10
2022-09-04T07:59:32.244Z,23.20
2022-09-04T08:02:31.165Z,23.20
2022-09-04T08:05:26.641Z,23.20
2022-09-04T08:08:25.687Z,23.20
2022-09-04T08:11:08.702Z,23.10
2022-09-04T08:14:04.582Z,23.20
2022-09-04T08:17:12.572Z,23.10
2022-09-04T08:19:53.260Z,23.10
2022-09-04T08:22:39.683Z,23.10
2022-09-04T08:25:51.209Z,23.00
2022-09-04T08:28:37.233Z,23.10
2022-09-04T08:31:37.013Z,23.00
2022-09-04T08:34:37.838Z,23.00
2022-09-04T08:37:30.983Z,22.90
2022-09-04T08:40:42.390Z,23.00
2022-09-04T08:43:34.448Z,23.00
2022-09-04T08:46:13.190Z,23.10
2022-09-04T08:49:26.033Z,23.00
2022-09-04T08:52:28.393Z,22.90
2022-09-04T08:55:34.916Z,22.90
2022-09-04T08:58:47.717Z,22.90
2022-09-04T09:01:30.067Z,23.00
2022-09-04T09:04:21.681Z,22.80
2022-09-04T09:07:00.649Z,22.90
2022-09-04T09:10:17.952Z,22.90
2022-09-04T09:13:15.785Z,22.90
2022-09-04T09:15:49.525Z,22.90
2022-09-04T09:18:54.420Z,22.90
2022-09-04T09:21:45.129Z,22.90
2022-09-04T09:24:36.066Z,22.90
2022-09-04T09:27:26.257Z,22.90
2022-09-04T09:30:13.735Z,22.90
2022-09-04T09:33:03.166Z,22.80
2022-09-04T09:35:53.878Z,22.70
2022-09-04T09:39:06.297Z,22.70
2022-09-04T09:42:16.151Z,22.70
2022-09-04T09:45:19.574Z,22.60
2022-09-04T09:48:21.913Z,22.50
2022-09-04T09:51:37.844Z,22.60
2022-09-04T09:54:41.607Z,22.50
2022-09-04T09:57:49.750Z,22.50
2022-09-04T10:00:22.134Z,22.50
2022-09-04T10:03:05.599Z,22.50
2022-09-04T10:05:45.435Z,22.40
2022-09-04T10:08:52.777Z,22.50
2022-09-04T10:12:05.381Z,22.50
2022-09-04T10:15:06.565Z,22.30
2022-09-04T10:17:55.373Z,22.30
2022-09-04T10:20:41.306Z,22.30
2022-09-04T10:23:33.079Z,22.40
2022-09-04T10:26:20.357Z,22.40
2022-09-04T10:29:33.340Z,22.50
2022-09-04T10:32:34.207Z,22.40
2022-09-04T10:35:40.059Z,22.30
2022-09-04T10:39:04.823Z,22.40
2022-09-04T10:41:51.887Z,22.50
2022-09-04T10:44:25.197Z,22.50
2022-09-04T10:47:07.375Z,22.40
2022-09-04T10:49:52.254Z,22.40
2022-09-04T10:52:49.243Z,22.30
2022-09-04T10:55:23.123Z,22.30
2022-09-04T10:58:11.734Z,22.40
2022-09-04T11:01:01.104Z,22.40
2022-09-04T11:03:57.140Z,22.40
2022-09-04T11:06:48.942Z,22.30
2022-09-04T11:09:51.295Z,22.30
2022-09-04T11:12:59.602Z,22.30
2022-09-04T11:15:39.231Z,22.20
2022-09-04T11:18:50.441Z,22.20
2022-09-04T11:21:41.432Z,22.10
2022-09-04T11:24:50.710Z,22.00
2022-09-04T11:27:50.578Z,22.10
2022-09-04T11:30:37.646Z,22.20
2022-09-04T11:33:49.453Z,22.20
2022-09-04T11:36:50.938Z,22.30
2022-09-04T11:39:53.181Z,22.10
2022-09-04T11:42:34.427Z,22.10
2022-09-04T11:45:50.357Z,22.10
2022-09-04T11:48:52.002Z,22.10
2022-09-04T11:51:41.442Z,22.10
2022-09-04T11:54:14.470Z,22.10
2022-09-04T11:56:58.186Z,22.10
2022-09-04T11:59:59.403Z,22.00
2022-09-04T12:02:57.281Z,22.10
2022-09-04T12:06:00.047Z,22.20
2022-09-04T12:09:10.434Z,22.20
2022-09-04T12:12:02.803Z,22.20
2022-09-04T12:15:17.301Z,22.20
2022-09-04T12:17:55.987Z,22.10
2022-09-04T12:20:56.795Z,22.10
2022-09-04T12:23:34.956Z,22.10
2022-09-04T12:26:33.953Z,22.20
2022-09-04T12:29:23.163Z,22.00
2022-09-04T12:32:08.383Z,22.20
2022-09-04T12:35:06.007Z,22.10
2022-09-04T12:37:55.847Z,22.10
2022-09-04T12:40:56.843Z,22.10
2022-09-04T12:43:44.113Z,22.10
2022-09-04T12:46:36.433Z,22.20
2022-09-04T12:49:50.071Z,22.20
2022-09-04T12:52:51.727Z,22.20
2022-09-04T12:56:24.205Z,22.20
2022-09-04T12:59:19.051Z,22.30
2022-09-04T13:01:58.895Z,22.30
2022-09-04T13:04:43.204Z,22.30
2022-09-04T13:07:25.951Z,22.30
2022-09-04T13:10:22.108Z,22.30
2022-09-04T13:13:06.573Z,22.30
2022-09-04T13:15:51.701Z,22.50
2022-09-04T13:18:45.291Z,22.50
2022-09-04T13:21:31.364Z,22.60
2022-09-04T13:24:44.506Z,22.60
2022-09-04T13:27:58.642Z,22.70
2022-09-04T13:30:31.691Z,22.70
2022-09-04T13:33:20.858Z,22.70
2022-09-04T13:36:20.589Z,22.80
2022-09-04T13:39:15.320Z,22.80
2022-09-04T13:41:45.139Z,22.80
2022-09-04T13:44:39.695Z,23.00
2022-09-04T13:47:32.169Z,23.00
2022-09-04T13:50:31.696Z,23.00
2022-09-04T13:53:16.606Z,23.10
2022-09-04T13:56:02.160Z,23.20
2022-09-04T13:58:53.532Z,23.20
2022-09-04T14:01:30.651Z,23.20
2022-09-04T14:04:09.926Z,23.30
2022-09-04T14:06:40.305Z,23.30
2022-09-04T14:09:11.331Z,23.40
2022-09-04T14:12:14.866Z,23.30
2022-09-04T14:15:02.447Z,23.40
2022-09-04T14:17:48.735Z,23.40
2022-09-04T14:20:25.939Z,23.40
2022-09-04T14:23:11.324Z,23.40
2022-09-04T14:26:06.243Z,23.50
2022-09-04T14:28:56.027Z,23.50
2022-09-04T14:32:06.769Z,23.50
2022-09-04T14:34:52.074Z,23.50
2022-09-04T14:37:48.699Z,23.60
2022-09-04T14:40:32.259Z,23.70
2022-09-04T14:43:09.359Z,23.70
2022-09-04T14:46:05.971Z,23.80
2022-09-04T14:48:48.205Z,23.80
2022-09-04T14:51:24.822Z,23.80
2022-09-04T14:53:57.502Z,23.90
2022-09-04T14:56:52.437Z,23.90
2022-09-04T14:59:39.722Z,24.00
2022-09-04T15:02:17.692Z,24.00
2022-09-04T15:05:09.751Z,24.00
2022-09-04T15:07:53.041Z,24.10
2022-09-04T15:10:43.919Z,24.20
2022-09-04T15:13:35.369Z,24.30
2022-09-04T15:16:12.695Z,24.30
2022-09-04T15:18:57.319Z,24.30
2022-09-04T15:21:45.500Z,24.30
2022-09-04T15:24:40.094Z,24.30
2022-09-04T15:27:31.148Z,24.40
2022-09-04T15:30:22.485Z,24.40
2022-09-04T15:33:14.187Z,24.50
2022-09-04T15:35:43.718Z,24.50
2022-09-04T15:38:23.257Z,24.60
2022-09-04T15:41:17.090Z,24.70
2022-09-04T15:44:11.660Z,24.70
2022-09-04T15:46:44.518Z,24.80
2022-09-04T15:49:30.681Z,24.80
2022-09-04T15:52:32.428Z,24.80
2022-09-04T15:55:23.959Z,24.80
2022-09-04T15:58:07.535Z,24.80
2022-09-04T16:00:41.403Z,24.90
2022-09-04T16:03:37.455Z,24.90
2022-09-04T16:06:38.413Z,24.90
2022-09-04T16:09:42.553Z,25.00
2022-09-04T16:12:20.229Z,25.10
2022-09-04T16:15:21.431Z,25.10
2022-09-04T16:17:55.871Z,25.10
2022-09-04T16:20:55.978Z,25.10
2022-09-04T16:23:37.978Z,25.20
2022-09-04T16:26:21.633Z,25.20
2022-09-04T16:29:05.093Z,25.30
2022-09-04T16:31:41.105Z,25.30
2022-09-04T16:34:24.001Z,25.30
2022-09-04T16:37:09.456Z,25.30
2022-09-04T16:40:15.730Z,25.30
2022-09-04T16:43:13.394Z,25.40
2022-09-04T16:46:09.604Z,25.50
2022-09-04T16:49:34.486Z,25.60
2022-09-04T16:52:38.115Z,25.50
2022-09-04T16:55:43.168Z,25.50
2022-09-04T16:58:18.559Z,25.50
2022-09-04T17:01:14.739Z,25.80
2022-09-04T17:04:12.844Z,25.90
2022-09-04T17:07:08.904Z,25.90
2022-09-04T17:09:41.101Z,26.20
2022-09-04T17:12:30.648Z,26.10
2022-09-04T17:15:33.784Z,26.10
2022-09-04T17:18:11.824Z,26.20
2022-09-04T17:25:05.688Z,26.30
2022-09-04T17:28:59.413Z,26.40
2022-09-04T17:29:13.815Z,26.40
2022-09-04T17:30:05.419Z,26.50
2022-09-04T17:36:49.284Z,26.60
2022-09-04T17:40:51.891Z,27.10
2022-09-04T17:40:53.467Z,26.90
2022-09-04T17:42:45.206Z,27.30
2022-09-04T17:45:48.715Z,27.20
2022-09-04T17:48:28.341Z,27.40
2022-09-04T17:51:02.173Z,27.20
2022-09-04T17:53:40.171Z,27.30
2022-09-04T17:56:42.502Z,27.30
2022-09-04T17:59:40.453Z,27.40
2022-09-04T18:02:41.391Z,27.60
2022-09-04T18:05:36.652Z,27.80
2022-09-04T18:08:34.575Z,28.00
2022-09-04T18:11:16.848Z,27.80
2022-09-04T18:14:14.455Z,27.70
2022-09-04T18:17:11.659Z,27.80
2022-09-04T18:20:00.997Z,28.00
2022-09-04T18:22:42.460Z,27.90
2022-09-04T18:25:24.791Z,28.00
2022-09-04T18:28:12.681Z,28.20
2022-09-04T18:31:12.975Z,28.30
2022-09-04T18:37:15.972Z,28.40
2022-09-04T18:37:45.687Z,28.50
2022-09-04T18:40:17.445Z,28.50
2022-09-04T18:50:29.642Z,28.70
2022-09-04T18:50:33.209Z,28.70
2022-09-04T18:50:35.289Z,28.60
2022-09-04T18:52:04.423Z,28.80
2022-09-04T18:54:45.791Z,28.70
2022-09-04T18:57:48.729Z,28.90
2022-09-04T19:00:37.934Z,28.80
2022-09-04T19:03:22.215Z,29.00
2022-09-04T19:06:07.908Z,28.90
2022-09-04T19:08:50.277Z,28.80
2022-09-04T19:11:30.885Z,29.00
2022-09-04T19:14:22.899Z,28.70
2022-09-04T19:17:05.463Z,28.90
2022-09-04T19:19:56.498Z,29.10
2022-09-04T19:22:33.987Z,29.30
2022-09-04T19:25:15.998Z,29.20
2022-09-04T19:28:11.630Z,29.10
2022-09-04T19:31:22.788Z,29.20
2022-09-04T19:34:03.342Z,29.30
2022-09-04T19:38:25.775Z,29.10
2022-09-04T19:45:19.980Z,29.20
2022-09-04T19:46:08.157Z,29.20
2022-09-04T19:46:44.470Z,29.30
2022-09-04T19:52:10.563Z,29.60
2022-09-04T19:53:30.533Z,29.60
2022-09-04T19:55:37.752Z,29.70
2022-09-04T19:58:14.591Z,29.50
2022-09-04T20:00:57.862Z,29.60
2022-09-04T20:04:05.244Z,29.70
2022-09-04T20:06:41.507Z,29.70
2022-09-04T20:09:35.958Z,29.60
2022-09-04T20:12:21.670Z,29.40
2022-09-04T20:15:28.272Z,29.50
2022-09-04T20:18:04.219Z,29.60
2022-09-04T20:21:19.416Z,29.70
2022-09-04T20:24:11.032Z,29.60
2022-09-04T20:27:18.968Z,29.70
2022-09-04T20:29:57.913Z,29.80
2022-09-04T20:32:56.371Z,29.70
2022-09-04T20:35:35.374Z,29.60
2022-09-04T20:38:33.955Z,29.50
2022-09-04T20:41:32.608Z,29.60
2022-09-04T20:44:19.133Z,29.80
2022-09-04T20:52:44.896Z,30.00
2022-09-04T20:53:05.826Z,29.80
2022-09-04T20:53:39.981Z,30.00
2022-09-04T20:57:44.930Z,30.10
2022-09-04T21:03:10.709Z,29.80
2022-09-04T21:03:37.854Z,30.00
2022-09-04T21:06:25.702Z,29.90
2022-09-04T21:09:28.934Z,30.00
2022-09-04T21:12:30.540Z,30.10
2022-09-04T21:15:15.658Z,30.00
2022-09-04T21:17:55.010Z,30.00
2022-09-04T21:20:50.397Z,29.80
2022-09-04T21:24:03.707Z,30.10
2022-09-04T21:27:14.418Z,30.30
2022-09-04T21:29:46.014Z,30.40
2022-09-04T21:32:32.153Z,30.40
2022-09-04T21:35:53.791Z,30.30
2022-09-04T21:38:37.275Z,30.30
2022-09-04T21:41:19.263Z,30.10
2022-09-04T21:44:29.657Z,30.20
2022-09-04T21:47:24.131Z,30.30
2022-09-04T21:50:34.802Z,30.20
2022-09-04T21:53:34.880Z,30.30
2022-09-04T22:02:30.593Z,30.30
2022-09-04T22:02:37.030Z,30.30
2022-09-04T22:03:47.280Z,30.40
2022-09-04T22:08:38.483Z,30.70
2022-09-04T22:13:29.245Z,30.80
2022-09-04T22:13:38.742Z,30.70
2022-09-04T22:16:36.021Z,30.50
2022-09-04T22:19:39.272Z,30.40
2022-09-04T22:22:21.885Z,30.20
2022-09-04T22:25:34.056Z,30.40
2022-09-04T22:28:43.549Z,31.00
2022-09-04T22:31:25.474Z,30.50
2022-09-04T22:34:22.191Z,31.10
2022-09-04T22:37:17.145Z,30.70
2022-09-04T22:40:03.312Z,30.30
2022-09-04T22:42:52.891Z,30.00
2022-09-04T22:45:38.800Z,29.90
2022-09-04T22:48:24.987Z,29.80
2022-09-04T22:51:16.312Z,29.80
2022-09-04T22:54:27.448Z,29.80
2022-09-04T22:57:03.694Z,29.80
2022-09-04T23:00:00.229Z,29.60
2022-09-04T23:03:08.782Z,29.70
2022-09-04T23:05:44.249Z,29.70
2022-09-04T23:13:49.835Z,29.60
2022-09-04T23:14:00.083Z,29.70
2022-09-04T23:15:08.411Z,30.60
2022-09-04T23:20:42.449Z,29.90
2022-09-04T23:26:38.178Z,29.40
2022-09-04T23:26:42.689Z,29.60
2022-09-04T23:27:30.793Z,29.50
2022-09-04T23:30:13.692Z,29.60
2022-09-04T23:32:47.180Z,29.40
2022-09-04T23:35:37.581Z,29.20
2022-09-04T23:38:41.702Z,29.20
2022-09-04T23:41:44.661Z,29.10
2022-09-04T23:44:48.500Z,29.20
2022-09-04T23:47:53.458Z,29.00
2022-09-04T23:50:50.840Z,29.10
2022-09-04T23:53:36.911Z,29.10
2022-09-04T23:56:25.047Z,30.30
2022-09-04T23:59:33.464Z,30.40
